createdAt,value
2022-08-16T00:03:56.057Z,21
2022-08-16T00:09:31.985Z,21
2022-08-16T00:15:11.984Z,21
2022-08-16T00:20:52.053Z,21
2022-08-16T00:26:34.379Z,21
2022-08-16T00:32:26.473Z,20.9
2022-08-16T00:38:40.022Z,20.9
2022-08-16T00:44:40.772Z,20.9
2022-08-16T00:50:14.615Z,20.9
2022-08-16T00:55:54.315Z,20.8
2022-08-16T01:01:29.441Z,20.8
2022-08-16T01:07:10.348Z,20.7
2022-08-16T01:12:54.732Z,20.7
2022-08-16T01:18:39.575Z,20.7
2022-08-16T01:24:44.874Z,20.7
2022-08-16T01:30:32.396Z,20.7
2022-08-16T01:36:26.479Z,20.7
2022-08-16T01:42:23.658Z,20.7
2022-08-16T01:48:00.973Z,20.6
2022-08-16T01:53:55.921Z,20.6
2022-08-16T01:59:33.562Z,20.6
2022-08-16T02:05:09.185Z,20.6
2022-08-16T02:10:46.190Z,20.5
2022-08-16T02:16:21.732Z,20.5
2022-08-16T02:22:08.001Z,20.5
2022-08-16T02:28:12.222Z,20.4
2022-08-16T02:33:59.011Z,20.4
2022-08-16T02:39:46.735Z,20.3
2022-08-16T02:45:29.835Z,20.2
2022-08-16T02:51:06.905Z,20.2
2022-08-16T02:56:47.698Z,20.1
2022-08-16T03:02:31.623Z,20.1
2022-08-16T03:08:50.056Z,20.1
2022-08-16T03:14:28.452Z,20.1
2022-08-16T03:20:04.453Z,20
2022-08-16T03:25:41.277Z,20
2022-08-16T03:31:23.286Z,19.9
2022-08-16T03:36:57.984Z,19.9
2022-08-16T03:43:00.620Z,19.8
2022-08-16T03:48:54.326Z,19.8
2022-08-16T03:54:30.412Z,19.8
2022-08-16T04:00:05.524Z,19.7
2022-08-16T04:05:44.239Z,19.7
2022-08-16T04:11:22.964Z,19.7
2022-08-16T04:17:00.337Z,19.7
2022-08-16T04:22:39.798Z,19.7
2022-08-16T04:28:28.764Z,19.7
2022-08-16T04:35:04.860Z,19.7
2022-08-16T04:40:51.233Z,19.6
2022-08-16T04:47:01.683Z,19.6
2022-08-16T04:53:10.503Z,19.6
2022-08-16T04:58:57.633Z,19.6
2022-08-16T05:04:32.613Z,19.6
2022-08-16T05:10:19.436Z,19.6
2022-08-16T05:15:58.315Z,19.6
2022-08-16T05:21:35.663Z,19.6
2022-08-16T05:27:14.299Z,19.6
2022-08-16T05:32:49.506Z,19.6
2022-08-16T05:38:31.197Z,19.6
2022-08-16T05:44:36.788Z,19.6
2022-08-16T05:50:19.061Z,19.6
2022-08-16T05:56:09.290Z,19.6
2022-08-16T06:01:54.758Z,19.6
2022-08-16T06:07:33.512Z,19.6
2022-08-16T06:13:08.285Z,19.6
2022-08-16T06:18:45.196Z,19.6
2022-08-16T06:24:53.161Z,19.7
2022-08-16T06:30:31.443Z,19.9
2022-08-16T06:36:06.389Z,20.3
2022-08-16T06:42:05.301Z,20.3
2022-08-16T06:47:52.652Z,20.5
2022-08-16T06:53:32.208Z,20.8
2022-08-16T06:59:10.363Z,21.4
2022-08-16T07:04:45.466Z,21.7
2022-08-16T07:10:25.881Z,21.7
2022-08-16T07:16:04.172Z,22
2022-08-16T07:21:46.015Z,22.4
2022-08-16T07:27:37.197Z,21.9
2022-08-16T07:33:16.035Z,22.1
2022-08-16T07:39:33.594Z,22
2022-08-16T07:45:29.761Z,21.7
2022-08-16T07:51:09.620Z,22.5
2022-08-16T07:56:45.573Z,22.5
2022-08-16T08:02:21.665Z,22.3
2022-08-16T08:08:11.711Z,22.4
2022-08-16T08:14:33.966Z,21.7
2022-08-16T08:20:08.885Z,21.5
2022-08-16T08:25:53.575Z,22.3
2022-08-16T08:31:32.118Z,23.4
2022-08-16T08:37:16.932Z,22.9
2022-08-16T08:43:17.903Z,22.2
2022-08-16T08:49:00.257Z,22.4
2022-08-16T08:54:42.931Z,22.8
2022-08-16T09:00:26.997Z,23.1
2022-08-16T09:06:04.874Z,23.3
2022-08-16T09:11:47.385Z,23.6
2022-08-16T09:18:24.668Z,23.8
2022-08-16T09:24:12.122Z,25.2
2022-08-16T09:30:50.480Z,24.1
2022-08-16T09:36:31.502Z,24.4
2022-08-16T09:42:31.488Z,24.7
2022-08-16T09:48:34.658Z,25.3
2022-08-16T09:54:32.291Z,25.4
2022-08-16T10:00:42.918Z,25.6
2022-08-16T10:06:21.546Z,26.1
2022-08-16T10:12:11.869Z,25.1
2022-08-16T10:17:59.714Z,24.9
2022-08-16T10:24:55.457Z,25.2
2022-08-16T10:30:36.876Z,24.8
2022-08-16T10:36:38.074Z,24.5
2022-08-16T10:42:36.638Z,25.8
2022-08-16T10:48:23.914Z,25.1
2022-08-16T10:54:07.442Z,25.4
2022-08-16T11:00:21.563Z,25.7
2022-08-16T11:06:21.478Z,26.5
2022-08-16T11:12:13.396Z,26.8
2022-08-16T11:18:21.592Z,26.4
2022-08-16T11:25:11.764Z,26.8
2022-08-16T11:31:59.973Z,27.7
2022-08-16T11:38:05.822Z,27.8
2022-08-16T11:44:57.646Z,28.2
2022-08-16T11:50:30.296Z,27.8
2022-08-16T11:56:04.973Z,28.7
2022-08-16T12:01:55.603Z,29.1
2022-08-16T12:08:08.765Z,29.8
2022-08-16T12:13:43.562Z,31.1
2022-08-16T12:19:33.508Z,32.4
2022-08-16T12:25:12.658Z,28.9
2022-08-16T12:30:51.486Z,27.6
2022-08-16T12:36:28.722Z,27.1
2022-08-16T12:42:34.619Z,26.8
2022-08-16T12:48:31.969Z,26.5
2022-08-16T12:54:11.822Z,26.4
2022-08-16T12:59:46.765Z,26.2
2022-08-16T13:05:21.962Z,26
2022-08-16T13:10:58.407Z,25.9
2022-08-16T13:16:34.256Z,26
2022-08-16T13:22:18.754Z,25.8
2022-08-16T13:27:59.726Z,26
2022-08-16T13:33:40.326Z,26.1
2022-08-16T13:39:15.684Z,26
2022-08-16T13:45:15.630Z,25.9
2022-08-16T13:50:52.761Z,25.7
2022-08-16T13:56:34.519Z,25.6
2022-08-16T14:02:16.666Z,25.4
2022-08-16T14:07:57.954Z,25.4
2022-08-16T14:13:34.189Z,25.4
2022-08-16T14:19:18.089Z,25.3
2022-08-16T14:25:07.124Z,25.2
2022-08-16T14:30:53.026Z,25.1
2022-08-16T14:36:29.971Z,25.1
2022-08-16T14:42:27.067Z,25.1
2022-08-16T14:47:59.585Z,25
2022-08-16T14:53:34.678Z,25
2022-08-16T14:59:27.025Z,25
2022-08-16T15:05:21.452Z,25.1
2022-08-16T15:10:58.419Z,25
2022-08-16T15:16:33.777Z,25
2022-08-16T15:22:21.927Z,24.9
2022-08-16T15:28:04.580Z,24.8
2022-08-16T15:34:06.845Z,24.7
2022-08-16T15:40:04.014Z,24.7
2022-08-16T15:46:06.989Z,24.7
2022-08-16T15:51:44.993Z,24.7
2022-08-16T15:57:22.470Z,24.6
2022-08-16T16:02:57.842Z,24.5
2022-08-16T16:08:38.924Z,24.5
2022-08-16T16:14:17.891Z,24.5
2022-08-16T16:19:54.803Z,25
2022-08-16T16:25:30.926Z,25.2
2022-08-16T16:31:07.854Z,25.5
2022-08-16T16:36:43.522Z,25.8
2022-08-16T16:42:51.295Z,26
2022-08-16T16:48:24.111Z,25.8
2022-08-16T16:54:12.666Z,26.1
2022-08-16T17:00:04.639Z,26.2
2022-08-16T17:06:34.271Z,25.8
2022-08-16T17:12:12.245Z,25.6
2022-08-16T17:19:15.830Z,25.4
2022-08-16T17:25:08.235Z,25.2
2022-08-16T17:30:44.649Z,25.1
2022-08-16T17:36:36.164Z,24.9
2022-08-16T17:42:51.018Z,24.8
2022-08-16T17:48:24.608Z,24.7
2022-08-16T17:53:59.390Z,24.6
2022-08-16T17:59:37.014Z,24.5
2022-08-16T18:05:17.558Z,24.4
2022-08-16T18:10:53.321Z,24.4
2022-08-16T18:16:31.099Z,24.3
2022-08-16T18:22:06.270Z,24.3
2022-08-16T18:27:41.231Z,24.2
2022-08-16T18:33:15.994Z,24.1
2022-08-16T18:38:51.572Z,24
2022-08-16T18:44:48.174Z,24
2022-08-16T18:50:21.485Z,23.9
2022-08-16T18:56:58.072Z,23.7
2022-08-16T19:02:42.885Z,23.6
2022-08-16T19:08:34.408Z,23.6
2022-08-16T19:14:09.284Z,23.5
2022-08-16T19:19:44.180Z,23.4
2022-08-16T19:25:19.230Z,23.4
2022-08-16T19:30:53.945Z,23.3
2022-08-16T19:36:30.772Z,23.3
2022-08-16T19:42:34.155Z,23.2
2022-08-16T19:48:07.747Z,23.2
2022-08-16T19:54:03.338Z,23.1
2022-08-16T19:59:39.853Z,23.1
2022-08-16T20:05:16.864Z,23
2022-08-16T20:10:52.287Z,23
2022-08-16T20:16:27.143Z,22.9
2022-08-16T20:22:02.214Z,22.8
2022-08-16T20:27:39.117Z,22.8
2022-08-16T20:33:14.883Z,22.7
2022-08-16T20:38:49.711Z,22.5
2022-08-16T20:44:46.413Z,22.4
2022-08-16T20:50:19.239Z,22.3
2022-08-16T20:55:55.593Z,22.3
2022-08-16T21:01:34.833Z,22.2
2022-08-16T21:07:26.161Z,22.1
2022-08-16T21:13:02.366Z,22.1
2022-08-16T21:18:36.981Z,22
2022-08-16T21:24:12.932Z,22
2022-08-16T21:29:47.983Z,21.9
2022-08-16T21:35:26.728Z,21.8
2022-08-16T21:41:03.294Z,21.8
2022-08-16T21:46:38.100Z,21.8
2022-08-16T21:52:13.255Z,21.7
2022-08-16T21:58:01.987Z,21.7
2022-08-16T22:03:36.880Z,21.7
2022-08-16T22:09:11.770Z,21.6
2022-08-16T22:14:48.070Z,21.6
2022-08-16T22:20:22.974Z,21.6
2022-08-16T22:25:57.966Z,21.6
2022-08-16T22:31:32.890Z,21.5
2022-08-16T22:37:08.136Z,21.5
2022-08-16T22:43:04.602Z,21.5
2022-08-16T22:48:39.286Z,21.4
2022-08-16T22:54:34.435Z,21.4
2022-08-16T23:00:24.503Z,21.4
2022-08-16T23:05:59.384Z,21.4
2022-08-16T23:11:34.812Z,21.3
2022-08-16T23:17:09.762Z,21.3
2022-08-16T23:23:20.156Z,21.3
2022-08-16T23:29:00.642Z,21.3
2022-08-16T23:34:35.531Z,21.2
2022-08-16T23:40:10.593Z,21.2
2022-08-16T23:45:46.354Z,21.2
2022-08-16T23:51:21.116Z,21.1
2022-08-16T23:56:56.133Z,21.1
